Time;durP1;ratioP1;P1;durP2;ratioP2;P2;SDS_P1;SDS_P2;PMS_P1;PMS_P2;Temp;Humidity;BMP_temperature;BMP_pressure;BME280_temperature;BME280_humidity;BME280_pressure;Samples;Min_cycle;Max_cycle;Signal;HPM_P1;HPM_P2
2022/06/04 00:02:02;;;;;;;2.57;2.47;;;20.50;43.50;;;;;;4978816;28;20443;-57
2022/06/04 00:04:28;;;;;;;2.93;2.83;;;20.40;43.50;;;;;;4983316;28;20483;-58
2022/06/04 00:06:53;;;;;;;2.80;2.70;;;20.50;43.60;;;;;;4982285;28;20418;-58
2022/06/04 00:09:28;;;;;;;2.80;2.70;;;20.40;43.50;;;;;;4983525;28;20224;-57
2022/06/04 00:17:37;;;;;;;2.80;2.70;;;20.50;43.60;;;;;;4968018;28;20513;-57
2022/06/04 00:20:03;;;;;;;2.77;2.67;;;20.40;43.40;;;;;;4977402;28;20936;-56
2022/06/04 00:22:29;;;;;;;2.40;2.30;;;20.40;43.50;;;;;;4984242;28;20221;-57
2022/06/04 00:24:55;;;;;;;2.70;2.60;;;20.40;43.50;;;;;;4981176;28;20470;-57
2022/06/04 00:27:21;;;;;;;2.50;2.40;;;20.40;43.50;;;;;;4981064;28;20708;-57
2022/06/04 00:29:46;;;;;;;2.33;2.23;;;20.40;43.50;;;;;;4983039;28;20291;-58
2022/06/04 00:32:13;;;;;;;2.20;2.10;;;20.40;43.50;;;;;;4980459;28;20460;-60
2022/06/04 00:34:38;;;;;;;2.70;2.60;;;20.40;43.50;;;;;;4980025;28;20243;-57
2022/06/04 00:37:04;;;;;;;2.40;2.30;;;20.50;43.60;;;;;;4981496;28;20482;-57
2022/06/04 00:39:30;;;;;;;2.20;2.10;;;20.50;43.50;;;;;;4979364;28;20224;-57
2022/06/04 00:42:08;;;;;;;2.43;2.33;;;20.50;43.50;;;;;;4996091;28;20720;-57
2022/06/04 00:44:33;;;;;;;2.00;1.90;;;20.50;43.60;;;;;;4979413;28;20345;-57
2022/06/04 00:47:07;;;;;;;2.53;2.43;;;20.40;43.50;;;;;;4980918;28;20567;-57
2022/06/04 00:49:32;;;;;;;2.60;2.50;;;20.40;43.40;;;;;;4981696;28;20274;-57
2022/06/04 00:51:58;;;;;;;2.40;2.30;;;20.50;43.60;;;;;;4982452;28;20458;-56
2022/06/04 00:54:24;;;;;;;2.33;2.23;;;20.50;43.50;;;;;;4980211;28;20225;-57
2022/06/04 00:57:15;;;;;;;2.43;2.33;;;20.50;43.60;;;;;;4979091;28;20654;-57
2022/06/04 01:00:06;;;;;;;2.20;2.10;;;20.50;43.60;;;;;;4979242;28;20581;-57
2022/06/04 01:02:57;;;;;;;2.30;2.20;;;20.40;43.50;;;;;;4981821;28;20809;-56
2022/06/04 01:05:50;;;;;;;2.27;2.17;;;20.40;43.50;;;;;;4986118;28;20488;-57
2022/06/04 01:08:26;;;;;;;2.20;2.10;;;20.50;44.30;;;;;;4985600;28;20426;-56
2022/06/04 01:11:09;;;;;;;2.20;2.10;;;20.40;43.50;;;;;;4984241;28;20484;-56
2022/06/04 01:13:53;;;;;;;2.43;2.33;;;20.40;43.50;;;;;;4981101;28;20450;-56
2022/06/04 01:16:18;;;;;;;2.40;2.30;;;20.40;43.50;;;;;;4996880;28;20959;-57
2022/06/04 01:19:20;;;;;;;2.40;2.30;;;20.40;43.50;;;;;;4980643;28;20503;-57
2022/06/04 01:21:59;;;;;;;2.97;2.33;;;20.40;43.50;;;;;;4984566;28;20253;-56
2022/06/04 01:25:10;;;;;;;2.30;2.20;;;20.40;43.50;;;;;;4983041;28;20456;-56
2022/06/04 01:27:53;;;;;;;2.23;2.13;;;20.40;43.50;;;;;;4967553;28;20509;-56
2022/06/04 01:30:25;;;;;;;2.40;2.30;;;20.40;43.50;;;;;;4984899;28;20454;-56
2022/06/04 01:32:59;;;;;;;1.90;1.80;;;20.40;43.50;;;;;;4986358;28;20462;-57
2022/06/04 01:35:33;;;;;;;3.73;2.10;;;20.40;43.50;;;;;;4985342;28;20493;-57
2022/06/04 01:38:22;;;;;;;2.10;1.90;;;20.40;43.50;;;;;;4984851;28;20474;-57
2022/06/04 01:41:08;;;;;;;2.50;2.40;;;20.40;43.50;;;;;;4982205;28;20459;-57
2022/06/04 01:43:37;;;;;;;2.30;2.20;;;20.40;43.60;;;;;;4985375;28;21050;-56
2022/06/04 01:46:54;;;;;;;2.33;2.23;;;20.40;43.50;;;;;;4983552;28;20467;-57
2022/06/04 01:49:36;;;;;;;2.10;2.00;;;20.40;43.50;;;;;;4981662;28;20435;-57
2022/06/04 01:52:26;;;;;;;2.03;1.93;;;20.40;43.60;;;;;;4983660;28;20530;-57
2022/06/04 01:55:04;;;;;;;2.10;2.00;;;20.40;43.60;;;;;;4982843;28;20549;-56
2022/06/04 01:57:41;;;;;;;2.20;2.10;;;20.40;43.60;;;;;;4983355;28;20500;-57
2022/06/04 02:00:34;;;;;;;2.00;1.90;;;20.40;43.60;;;;;;4983885;28;20520;-56
2022/06/04 02:03:18;;;;;;;2.10;2.00;;;20.40;43.60;;;;;;4984291;28;20814;-58
2022/06/04 02:05:53;;;;;;;2.27;2.17;;;20.40;43.60;;;;;;4980377;28;20455;-57
2022/06/04 02:08:26;;;;;;;1.90;1.80;;;20.40;43.50;;;;;;4980059;28;20874;-56
2022/06/04 02:10:58;;;;;;;2.37;2.03;;;20.40;43.60;;;;;;4984956;28;20421;-56
2022/06/04 02:13:24;;;;;;;2.10;2.00;;;20.40;43.60;;;;;;4983898;28;20447;-57
2022/06/04 02:16:00;;;;;;;2.20;2.10;;;20.40;43.60;;;;;;4984777;28;20470;-56
2022/06/04 02:18:25;;;;;;;2.20;2.10;;;20.40;43.60;;;;;;4983324;28;20555;-57
2022/06/04 02:20:51;;;;;;;2.03;1.93;;;20.40;43.50;;;;;;4982995;28;20956;-57
2022/06/04 02:23:17;;;;;;;2.00;1.90;;;20.40;43.60;;;;;;4983635;28;20244;-57
2022/06/04 02:25:43;;;;;;;2.10;2.00;;;20.40;43.60;;;;;;4983422;28;20568;-59
2022/06/04 02:28:10;;;;;;;2.00;1.90;;;20.40;43.60;;;;;;4983756;28;20650;-57
2022/06/04 02:31:10;;;;;;;2.03;1.93;;;20.40;43.60;;;;;;4981265;28;20248;-57
2022/06/04 02:33:49;;;;;;;2.03;1.93;;;20.40;43.50;;;;;;4985678;28;20454;-58
2022/06/04 02:36:37;;;;;;;2.10;2.00;;;20.40;43.50;;;;;;4984417;28;20508;-58
2022/06/04 02:39:15;;;;;;;2.13;2.03;;;20.40;43.60;;;;;;4979328;28;20451;-57
2022/06/04 02:42:04;;;;;;;2.30;2.20;;;20.40;43.60;;;;;;4984320;28;20538;-60
2022/06/04 02:44:34;;;;;;;2.17;1.97;;;20.40;43.60;;;;;;4944721;28;21007;-57
2022/06/04 02:47:28;;;;;;;2.13;2.03;;;20.40;43.60;;;;;;4983528;28;20451;-57
2022/06/04 02:50:13;;;;;;;1.93;1.83;;;20.40;43.50;;;;;;4983607;28;20491;-57
2022/06/04 02:52:40;;;;;;;1.80;1.70;;;20.40;43.50;;;;;;4980857;28;20462;-58
2022/06/04 02:55:10;;;;;;;2.03;1.93;;;20.40;43.50;;;;;;4976538;28;20454;-57
2022/06/04 02:57:41;;;;;;;2.40;2.20;;;20.40;43.40;;;;;;4976551;28;20793;-57
2022/06/04 03:00:10;;;;;;;2.93;2.60;;;20.40;43.10;;;;;;4970387;28;21138;-57
2022/06/04 03:02:36;;;;;;;4.53;2.23;;;20.40;42.80;;;;;;4987673;28;20446;-57
2022/06/04 03:05:14;;;;;;;2.07;1.97;;;20.50;42.70;;;;;;4980071;28;20438;-57
2022/06/04 03:07:43;;;;;;;2.10;2.00;;;20.40;42.60;;;;;;4982921;28;20458;-57
2022/06/04 03:10:16;;;;;;;2.60;2.30;;;20.50;42.70;;;;;;4983252;28;20470;-57
2022/06/04 03:12:41;;;;;;;2.23;2.13;;;20.40;42.40;;;;;;4982173;28;20931;-58
2022/06/04 03:15:09;;;;;;;2.60;2.40;;;20.40;43.00;;;;;;4980123;28;20436;-57
2022/06/04 03:17:34;;;;;;;2.20;2.10;;;20.50;42.10;;;;;;4984329;28;20231;-57
2022/06/04 03:20:00;;;;;;;2.53;2.30;;;20.40;41.90;;;;;;4980412;28;20955;-58
2022/06/04 03:22:26;;;;;;;2.30;2.20;;;20.50;41.80;;;;;;4983461;28;20689;-57
2022/06/04 03:24:51;;;;;;;2.03;1.93;;;20.40;41.70;;;;;;4982570;28;20252;-57
2022/06/04 03:27:17;;;;;;;2.60;2.50;;;20.40;41.50;;;;;;4981423;28;20280;-57
2022/06/04 03:29:42;;;;;;;2.20;2.10;;;20.50;41.60;;;;;;4982040;28;20229;-59
2022/06/04 03:32:08;;;;;;;2.73;2.63;;;20.40;41.30;;;;;;4981934;28;20617;-58
2022/06/04 03:34:33;;;;;;;2.30;2.10;;;20.40;41.30;;;;;;4981569;28;20231;-57
2022/06/04 03:36:59;;;;;;;2.40;2.20;;;20.40;41.20;;;;;;4980907;28;20276;-58
2022/06/04 03:39:25;;;;;;;2.83;2.53;;;20.50;41.30;;;;;;4980600;28;20739;-57
2022/06/04 03:41:50;;;;;;;2.90;2.70;;;20.40;41.10;;;;;;4979484;28;20244;-57
2022/06/04 03:44:16;;;;;;;2.80;2.60;;;20.40;41.80;;;;;;4983851;28;20596;-57
2022/06/04 03:46:41;;;;;;;2.33;2.23;;;20.40;41.10;;;;;;4980276;28;20224;-57
2022/06/04 03:49:07;;;;;;;3.00;2.40;;;20.50;41.10;;;;;;4982663;28;20227;-57
2022/06/04 03:51:33;;;;;;;2.40;2.20;;;20.40;40.90;;;;;;4981370;28;20299;-57
2022/06/04 03:53:58;;;;;;;2.30;2.20;;;20.40;40.90;;;;;;4982962;28;20220;-57
2022/06/04 03:56:25;;;;;;;3.00;2.40;;;20.40;40.90;;;;;;4984339;28;20232;-57
2022/06/04 03:58:51;;;;;;;2.47;2.33;;;20.50;41.00;;;;;;4981715;28;20224;-57
2022/06/04 04:01:22;;;;;;;2.77;2.57;;;20.40;40.80;;;;;;4981220;28;20445;-58
2022/06/04 04:03:49;;;;;;;2.37;2.17;;;20.40;40.80;;;;;;4981684;28;20983;-59
2022/06/04 04:06:33;;;;;;;2.70;2.50;;;20.40;40.80;;;;;;4984544;28;20458;-58
2022/06/04 04:08:59;;;;;;;2.27;2.17;;;20.40;40.80;;;;;;4987206;28;20467;-59
2022/06/04 04:11:27;;;;;;;2.33;2.13;;;20.40;40.80;;;;;;4981109;28;20471;-57
2022/06/04 04:13:53;;;;;;;2.40;2.20;;;20.40;40.80;;;;;;4985811;28;20220;-58
2022/06/04 04:16:20;;;;;;;2.43;2.30;;;20.40;40.70;;;;;;4984655;28;20463;-58
2022/06/04 04:18:46;;;;;;;2.30;2.10;;;20.40;40.70;;;;;;4982106;28;20452;-57
2022/06/04 04:21:14;;;;;;;5.07;3.33;;;20.40;40.70;;;;;;4981979;28;20484;-57
2022/06/04 04:23:41;;;;;;;2.60;2.23;;;20.40;40.70;;;;;;4982817;28;20213;-57
2022/06/04 04:26:09;;;;;;;2.23;2.13;;;20.40;40.70;;;;;;4981195;28;20433;-58
2022/06/04 04:28:35;;;;;;;2.70;2.50;;;20.40;40.70;;;;;;4983027;28;20581;-57
2022/06/04 04:31:00;;;;;;;2.30;2.20;;;20.40;40.70;;;;;;4995809;28;20553;-58
2022/06/04 04:33:26;;;;;;;3.03;2.83;;;20.40;40.60;;;;;;4980870;28;20221;-57
2022/06/04 04:35:52;;;;;;;1.97;1.87;;;20.40;41.40;;;;;;4985512;28;20227;-57
2022/06/04 04:38:18;;;;;;;2.33;2.23;;;20.40;40.60;;;;;;4982138;28;20443;-58
2022/06/04 04:40:45;;;;;;;2.77;2.50;;;20.40;40.70;;;;;;4981322;28;20246;-58
2022/06/04 04:43:11;;;;;;;3.00;2.70;;;20.40;40.60;;;;;;4979927;28;20221;-57
2022/06/04 04:45:37;;;;;;;2.43;2.33;;;20.50;40.70;;;;;;4980166;28;20456;-58
2022/06/04 04:48:03;;;;;;;2.23;2.13;;;20.50;40.60;;;;;;4979876;28;20320;-58
2022/06/04 04:50:36;;;;;;;2.30;2.20;;;20.50;40.60;;;;;;4981829;28;20225;-57
2022/06/04 04:53:09;;;;;;;2.20;2.10;;;20.50;40.50;;;;;;4980130;28;20235;-58
2022/06/04 04:55:34;;;;;;;2.00;1.90;;;20.50;40.30;;;;;;4979691;28;20487;-57
2022/06/04 04:58:01;;;;;;;2.20;2.10;;;20.50;40.30;;;;;;4977392;28;20479;-58
2022/06/04 05:00:27;;;;;;;2.70;2.60;;;20.50;40.30;;;;;;4980517;28;20224;-57
2022/06/04 05:02:53;;;;;;;2.47;2.20;;;20.50;40.20;;;;;;4981647;28;20462;-58
2022/06/04 05:05:18;;;;;;;3.40;2.13;;;20.50;40.20;;;;;;4979502;28;20971;-57
2022/06/04 05:07:44;;;;;;;2.37;2.27;;;20.60;40.20;;;;;;4981284;28;20256;-57
2022/06/04 05:10:11;;;;;;;2.53;2.43;;;20.60;40.20;;;;;;4979802;28;20614;-58
2022/06/04 05:12:37;;;;;;;3.03;2.83;;;20.60;40.10;;;;;;4979144;28;20263;-58
2022/06/04 05:15:03;;;;;;;2.20;2.10;;;20.60;40.10;;;;;;4977302;28;21073;-62
2022/06/04 05:17:28;;;;;;;2.40;2.30;;;20.60;40.10;;;;;;4980050;28;20209;-59
2022/06/04 05:19:54;;;;;;;2.70;2.37;;;20.60;40.20;;;;;;4980677;28;20492;-57
2022/06/04 05:22:20;;;;;;;2.37;2.27;;;20.60;40.10;;;;;;4984879;28;20220;-58
2022/06/04 05:24:45;;;;;;;2.53;2.17;;;20.60;40.10;;;;;;4979110;28;20268;-59
2022/06/04 05:27:11;;;;;;;2.40;2.30;;;20.60;40.10;;;;;;4980303;28;20216;-58
2022/06/04 05:29:37;;;;;;;4.07;2.67;;;20.60;40.00;;;;;;4981790;28;20291;-58
2022/06/04 05:32:04;;;;;;;3.20;2.67;;;20.60;40.10;;;;;;4981277;28;20240;-59
2022/06/04 05:34:31;;;;;;;2.10;1.90;;;20.60;40.10;;;;;;4982503;28;20498;-58
2022/06/04 05:36:57;;;;;;;2.13;2.00;;;20.60;40.10;;;;;;4982616;28;20443;-57
2022/06/04 05:39:23;;;;;;;2.70;2.60;;;20.60;40.10;;;;;;4979108;28;20817;-58
2022/06/04 05:41:49;;;;;;;2.00;1.90;;;20.70;40.10;;;;;;4983503;28;20308;-58
2022/06/04 05:44:15;;;;;;;2.03;1.93;;;20.60;40.10;;;;;;4983590;28;20546;-58
2022/06/04 05:46:42;;;;;;;2.20;2.10;;;20.60;40.30;;;;;;4981125;28;20221;-58
2022/06/04 05:49:10;;;;;;;2.20;2.10;;;20.60;40.40;;;;;;4986530;28;20448;-58
2022/06/04 05:51:37;;;;;;;1.97;1.87;;;20.60;40.60;;;;;;4985749;28;20896;-57
2022/06/04 05:54:03;;;;;;;2.20;2.10;;;20.60;40.60;;;;;;4991109;28;20460;-59
2022/06/04 05:56:31;;;;;;;2.10;2.00;;;20.60;40.80;;;;;;4982870;28;20452;-58
2022/06/04 05:59:03;;;;;;;1.80;1.70;;;20.60;40.90;;;;;;4983123;28;20477;-57
2022/06/04 06:01:31;;;;;;;2.67;2.30;;;20.60;41.00;;;;;;4983485;28;20468;-57
2022/06/04 06:03:58;;;;;;;3.87;2.30;;;20.60;41.10;;;;;;4984541;28;20454;-57
2022/06/04 06:06:27;;;;;;;2.40;2.30;;;20.60;41.20;;;;;;4983648;28;20433;-58
2022/06/04 06:08:55;;;;;;;1.90;1.80;;;20.60;42.10;;;;;;4980562;28;20808;-58
2022/06/04 06:11:21;;;;;;;2.00;1.90;;;20.60;41.40;;;;;;4984971;28;20568;-57
2022/06/04 06:13:48;;;;;;;2.23;2.13;;;20.60;41.40;;;;;;4983466;28;20469;-57
2022/06/04 06:16:16;;;;;;;2.10;2.00;;;20.60;41.50;;;;;;4984566;28;20454;-58
2022/06/04 06:18:42;;;;;;;2.27;2.17;;;20.60;41.60;;;;;;4981453;28;20569;-61
2022/06/04 06:21:11;;;;;;;1.97;1.87;;;20.60;41.70;;;;;;4979845;28;20542;-57
2022/06/04 06:23:37;;;;;;;2.10;2.00;;;20.60;41.70;;;;;;4984654;28;20231;-55
2022/06/04 06:26:08;;;;;;;1.83;1.73;;;20.60;41.70;;;;;;4982480;28;20834;-56
2022/06/04 06:28:35;;;;;;;2.20;2.10;;;20.60;41.80;;;;;;4998832;28;20563;-56
2022/06/04 06:31:01;;;;;;;1.80;1.70;;;20.60;41.80;;;;;;4979839;28;20791;-56
2022/06/04 06:33:27;;;;;;;1.90;1.80;;;20.60;41.80;;;;;;4984185;28;20767;-55
2022/06/04 06:36:01;;;;;;;2.03;1.93;;;20.60;41.80;;;;;;4984090;28;20458;-56
2022/06/04 06:38:27;;;;;;;2.10;2.00;;;20.60;41.90;;;;;;4980527;28;20228;-55
2022/06/04 06:40:55;;;;;;;2.37;2.27;;;20.60;42.00;;;;;;4983216;28;20446;-55
2022/06/04 06:43:21;;;;;;;2.33;2.23;;;20.60;42.00;;;;;;4986237;28;20462;-56
2022/06/04 06:45:47;;;;;;;2.10;2.00;;;20.60;42.10;;;;;;4983722;28;20574;-56
2022/06/04 06:48:13;;;;;;;2.20;2.10;;;20.60;42.10;;;;;;4985557;28;20478;-56
2022/06/04 06:50:39;;;;;;;2.07;1.97;;;20.60;42.20;;;;;;4984172;28;20501;-55
2022/06/04 06:53:04;;;;;;;2.00;1.90;;;20.60;42.20;;;;;;4983078;28;20678;-55
2022/06/04 06:55:30;;;;;;;1.70;1.60;;;20.60;42.20;;;;;;4988509;28;20224;-55
2022/06/04 06:57:56;;;;;;;2.10;2.00;;;20.60;42.30;;;;;;4984217;28;20221;-55
2022/06/04 07:00:22;;;;;;;2.00;1.90;;;20.60;42.30;;;;;;4983537;28;20229;-56
2022/06/04 07:02:47;;;;;;;2.20;2.10;;;20.60;42.30;;;;;;4987196;28;20217;-56
2022/06/04 07:05:13;;;;;;;2.20;2.10;;;20.60;42.40;;;;;;4983113;28;20233;-56
2022/06/04 07:07:40;;;;;;;2.20;2.10;;;20.60;42.40;;;;;;4982096;28;20685;-55
2022/06/04 07:10:06;;;;;;;2.03;1.93;;;20.60;42.40;;;;;;4983844;28;20450;-55
2022/06/04 07:12:32;;;;;;;2.30;2.20;;;20.60;42.50;;;;;;4982295;28;20478;-55
2022/06/04 07:14:58;;;;;;;2.10;2.00;;;20.60;42.50;;;;;;4983770;28;20461;-55
2022/06/04 07:17:24;;;;;;;2.03;1.93;;;20.60;42.50;;;;;;4981998;28;20952;-55
2022/06/04 07:19:50;;;;;;;2.77;2.50;;;20.60;42.50;;;;;;4981408;28;20549;-55
2022/06/04 07:22:16;;;;;;;2.33;2.23;;;20.60;42.50;;;;;;4980023;28;20248;-56
2022/06/04 07:24:41;;;;;;;2.20;2.10;;;20.60;42.60;;;;;;4983558;28;20249;-56
2022/06/04 07:27:08;;;;;;;2.30;2.20;;;20.60;42.60;;;;;;4995319;28;20225;-56
2022/06/04 07:29:34;;;;;;;2.63;2.47;;;20.60;42.60;;;;;;4984244;28;20226;-56
2022/06/04 07:32:00;;;;;;;2.10;1.90;;;20.60;42.60;;;;;;4981770;28;20451;-55
2022/06/04 07:34:25;;;;;;;3.60;2.13;;;20.60;42.70;;;;;;4978629;28;20459;-56
2022/06/04 07:36:52;;;;;;;2.40;2.20;;;20.60;42.70;;;;;;4983517;28;20225;-55
2022/06/04 07:39:18;;;;;;;2.50;2.30;;;20.60;42.70;;;;;;4983946;28;20232;-55
2022/06/04 07:41:51;;;;;;;1.80;1.70;;;20.60;42.70;;;;;;4980475;28;20478;-55
2022/06/04 07:44:16;;;;;;;2.20;2.10;;;20.60;42.70;;;;;;4983207;28;20443;-55
2022/06/04 07:46:44;;;;;;;2.50;2.40;;;20.60;42.70;;;;;;4979774;28;20458;-57
2022/06/04 07:49:11;;;;;;;2.33;2.23;;;20.60;42.80;;;;;;4982122;28;20555;-56
2022/06/04 07:51:37;;;;;;;2.27;2.17;;;20.60;42.70;;;;;;4980448;28;20443;-56
2022/06/04 07:54:05;;;;;;;2.30;2.20;;;20.60;42.80;;;;;;4981401;28;20982;-56
2022/06/04 07:56:31;;;;;;;2.20;2.10;;;20.60;42.80;;;;;;4978481;28;20443;-56
2022/06/04 07:58:57;;;;;;;2.20;2.10;;;20.60;42.80;;;;;;4979354;28;20451;-56
2022/06/04 08:01:23;;;;;;;2.30;2.20;;;20.60;42.80;;;;;;4980187;28;20472;-56
2022/06/04 08:03:50;;;;;;;2.33;2.23;;;20.60;42.90;;;;;;4981252;28;20244;-55
2022/06/04 08:06:18;;;;;;;2.00;1.90;;;20.60;42.80;;;;;;4981692;28;20542;-56
2022/06/04 08:08:45;;;;;;;2.40;2.30;;;20.60;42.90;;;;;;4983603;28;20915;-56
2022/06/04 08:13:56;;;;;;;2.17;2.07;;;20.60;43.00;;;;;;4982222;28;20417;-56
2022/06/04 08:16:21;;;;;;;2.37;2.27;;;20.60;43.00;;;;;;4983770;28;20451;-55
2022/06/04 08:18:47;;;;;;;2.10;2.00;;;20.60;43.00;;;;;;4982771;28;20233;-56
2022/06/04 08:21:13;;;;;;;2.90;2.70;;;20.50;42.90;;;;;;4981699;28;20674;-55
2022/06/04 08:23:39;;;;;;;2.63;2.33;;;20.60;43.00;;;;;;4986370;28;20267;-55
2022/06/04 08:26:07;;;;;;;2.77;2.60;;;20.60;43.00;;;;;;4981808;28;20332;-55
2022/06/04 08:28:33;;;;;;;2.60;2.50;;;20.60;43.00;;;;;;4986968;28;20467;-55
2022/06/04 08:31:06;;;;;;;2.77;2.67;;;20.50;42.90;;;;;;4981134;28;20509;-55
2022/06/04 08:33:31;;;;;;;2.40;2.30;;;20.50;42.90;;;;;;4978788;28;20450;-55
2022/06/04 08:35:57;;;;;;;2.10;2.00;;;20.50;42.90;;;;;;4983795;28;20469;-55
2022/06/04 08:38:23;;;;;;;2.20;2.03;;;20.50;42.90;;;;;;4982728;28;20220;-55
2022/06/04 08:40:56;;;;;;;2.30;2.00;;;20.50;43.00;;;;;;4984048;28;20231;-55
2022/06/04 08:43:33;;;;;;;2.43;2.33;;;20.50;43.00;;;;;;4982037;28;20219;-55
2022/06/04 08:46:01;;;;;;;2.60;2.50;;;20.50;42.90;;;;;;4980094;28;20448;-56
2022/06/04 08:48:34;;;;;;;2.50;2.40;;;20.50;42.90;;;;;;4978400;28;20746;-55
2022/06/04 08:51:00;;;;;;;2.07;1.97;;;20.50;43.00;;;;;;4978603;28;20453;-55
2022/06/04 08:53:29;;;;;;;2.30;2.20;;;20.50;43.00;;;;;;4981505;28;20804;-55
2022/06/04 08:59:10;;;;;;;2.40;2.30;;;20.50;43.00;;;;;;4980769;28;20873;-55
2022/06/04 09:01:45;;;;;;;2.50;2.40;;;20.50;43.00;;;;;;4977485;28;20455;-55
2022/06/04 09:04:50;;;;;;;2.50;2.40;;;20.50;43.00;;;;;;4982546;28;20443;-55
2022/06/04 09:07:23;;;;;;;2.80;2.60;;;20.50;43.00;;;;;;4979533;28;20484;-55
2022/06/04 09:10:10;;;;;;;2.20;2.10;;;20.50;43.00;;;;;;4979456;28;20451;-55
2022/06/04 09:12:49;;;;;;;2.57;2.47;;;20.50;43.00;;;;;;4980953;28;20458;-55
2022/06/04 09:15:24;;;;;;;2.93;2.73;;;20.50;43.10;;;;;;4979643;28;20455;-55
2022/06/04 09:17:53;;;;;;;2.57;2.37;;;20.50;43.10;;;;;;4979138;28;20465;-55
2022/06/04 09:20:34;;;;;;;3.07;2.90;;;20.50;43.10;;;;;;4982040;28;20498;-55
2022/06/04 09:23:06;;;;;;;2.37;2.27;;;20.50;43.10;;;;;;4979818;28;20520;-55
2022/06/04 09:25:45;;;;;;;2.43;2.33;;;20.50;43.10;;;;;;4981794;28;20565;-55
2022/06/04 09:28:21;;;;;;;2.50;2.40;;;20.50;43.10;;;;;;4985075;28;20804;-56
2022/06/04 09:31:15;;;;;;;2.53;2.43;;;20.50;43.10;;;;;;4982332;28;20846;-55
2022/06/04 09:34:00;;;;;;;2.20;2.10;;;20.50;43.10;;;;;;4980673;28;20474;-55
2022/06/04 09:36:29;;;;;;;2.80;2.60;;;20.50;43.10;;;;;;4979628;28;20455;-55
2022/06/04 09:39:04;;;;;;;2.57;2.47;;;20.50;43.10;;;;;;4987491;28;20970;-55
2022/06/04 09:41:32;;;;;;;2.20;2.10;;;20.50;43.10;;;;;;4984708;28;20434;-55
2022/06/04 09:44:12;;;;;;;2.30;2.20;;;20.50;43.10;;;;;;4987177;28;20533;-55
2022/06/04 09:46:45;;;;;;;2.63;2.53;;;20.50;43.20;;;;;;4983865;28;20471;-55
2022/06/04 09:49:31;;;;;;;2.50;2.40;;;20.50;43.10;;;;;;4983543;28;20470;-55
2022/06/04 09:51:57;;;;;;;2.70;2.60;;;20.50;43.20;;;;;;4983580;28;20500;-55
2022/06/04 09:54:33;;;;;;;2.60;2.50;;;20.50;43.10;;;;;;4986537;28;20859;-55
2022/06/04 09:57:05;;;;;;;2.70;2.60;;;20.50;43.10;;;;;;4986757;28;20477;-55
2022/06/04 09:59:33;;;;;;;2.70;2.50;;;20.50;43.10;;;;;;4981826;28;20965;-55
2022/06/04 10:02:10;;;;;;;2.40;2.30;;;20.50;43.10;;;;;;4981692;28;20459;-55
2022/06/04 10:04:40;;;;;;;2.70;2.50;;;20.50;43.20;;;;;;4984844;28;20806;-55
2022/06/04 10:07:09;;;;;;;2.80;2.70;;;20.50;43.20;;;;;;4983570;28;20463;-55
2022/06/04 10:09:56;;;;;;;2.43;2.33;;;20.50;43.10;;;;;;4984189;28;20442;-55
2022/06/04 10:15:23;;;;;;;2.90;2.80;;;20.50;43.10;;;;;;4984897;28;20524;-55
2022/06/04 10:18:00;;;;;;;2.57;2.47;;;20.50;43.20;;;;;;4985144;28;20434;-55
2022/06/04 10:20:26;;;;;;;2.70;2.50;;;20.50;43.20;;;;;;4982947;28;20450;-55
2022/06/04 10:22:52;;;;;;;2.47;2.37;;;20.50;43.20;;;;;;4980979;28;20514;-55
2022/06/04 10:25:25;;;;;;;3.20;3.00;;;20.50;43.20;;;;;;4983813;28;20441;-55
2022/06/04 10:28:18;;;;;;;2.67;2.50;;;20.50;43.20;;;;;;4982314;28;20640;-55
2022/06/04 10:31:12;;;;;;;2.60;2.50;;;20.50;43.20;;;;;;4981979;28;20524;-55
2022/06/04 10:33:58;;;;;;;2.70;2.60;;;20.50;43.20;;;;;;4983506;28;20433;-55
2022/06/04 10:36:44;;;;;;;2.30;2.20;;;20.50;43.20;;;;;;4982771;28;20458;-55
2022/06/04 10:39:23;;;;;;;2.53;2.43;;;20.50;43.30;;;;;;4983920;28;20852;-55
2022/06/04 10:41:59;;;;;;;2.37;2.27;;;20.40;43.10;;;;;;4985261;28;20466;-55
2022/06/04 10:44:24;;;;;;;2.67;2.57;;;20.40;43.20;;;;;;4985143;28;20791;-55
2022/06/04 10:47:04;;;;;;;2.40;2.30;;;20.50;43.30;;;;;;4983130;28;20465;-55
2022/06/04 10:49:52;;;;;;;2.60;2.50;;;20.40;43.20;;;;;;4980777;28;20577;-55
2022/06/04 10:52:41;;;;;;;2.67;2.57;;;20.50;43.30;;;;;;4980837;28;20771;-55
2022/06/04 10:55:13;;;;;;;2.60;2.40;;;20.40;43.20;;;;;;4978850;28;20462;-55
2022/06/04 10:58:10;;;;;;;3.17;3.07;;;20.40;43.20;;;;;;4985251;28;20479;-55
2022/06/04 11:01:08;;;;;;;3.07;2.97;;;20.50;43.20;;;;;;4981111;28;20521;-55
2022/06/04 11:04:07;;;;;;;3.10;2.90;;;20.40;43.20;;;;;;4976422;28;20943;-55
2022/06/04 11:06:37;;;;;;;2.53;2.43;;;20.40;43.20;;;;;;4983704;28;20445;-55
2022/06/04 11:09:12;;;;;;;2.50;2.40;;;20.40;43.30;;;;;;4984381;28;20825;-55
2022/06/04 11:11:55;;;;;;;3.10;2.90;;;20.40;43.30;;;;;;4986007;28;20425;-55
2022/06/04 11:14:26;;;;;;;2.90;2.70;;;20.40;43.30;;;;;;4985096;28;20459;-55
2022/06/04 11:17:05;;;;;;;2.80;2.70;;;20.40;43.30;;;;;;4982205;28;20956;-55
2022/06/04 11:19:37;;;;;;;3.10;2.90;;;20.50;43.40;;;;;;4983256;28;20455;-55
2022/06/04 11:22:18;;;;;;;2.87;2.60;;;20.40;43.30;;;;;;4983283;28;20812;-55
2022/06/04 11:24:57;;;;;;;3.10;2.97;;;20.40;43.30;;;;;;4982773;28;20507;-55
2022/06/04 11:27:39;;;;;;;2.70;2.60;;;20.50;43.40;;;;;;4980169;28;20450;-55
2022/06/04 11:30:17;;;;;;;3.40;3.20;;;20.40;43.30;;;;;;4981252;28;20457;-56
2022/06/04 11:32:54;;;;;;;2.70;2.60;;;20.50;43.50;;;;;;4979324;28;20458;-58
2022/06/04 11:35:27;;;;;;;3.33;3.17;;;20.40;43.30;;;;;;4981452;28;20976;-56
2022/06/04 11:38:20;;;;;;;2.70;2.60;;;20.50;43.50;;;;;;4983079;28;20579;-55
2022/06/04 11:41:02;;;;;;;3.27;3.07;;;20.50;43.50;;;;;;4980831;28;20459;-55
2022/06/04 11:43:46;;;;;;;3.60;3.30;;;20.40;43.30;;;;;;4981534;28;20764;-55
2022/06/04 11:46:26;;;;;;;3.03;2.93;;;20.50;43.50;;;;;;4979361;28;21526;-55
2022/06/04 11:49:29;;;;;;;2.67;2.57;;;20.40;43.30;;;;;;4979461;28;20446;-55
2022/06/04 11:52:25;;;;;;;3.00;2.90;;;20.50;43.50;;;;;;4980279;28;20446;-55
2022/06/04 11:55:00;;;;;;;3.10;2.90;;;20.40;43.30;;;;;;4981410;28;20422;-55
2022/06/04 11:57:53;;;;;;;3.00;2.90;;;20.40;43.30;;;;;;4979836;28;20453;-55
2022/06/04 12:00:38;;;;;;;3.17;3.07;;;20.40;43.30;;;;;;4982340;28;20458;-55
2022/06/04 12:03:09;;;;;;;3.00;2.90;;;20.50;43.50;;;;;;4982706;28;20811;-56
2022/06/04 12:05:40;;;;;;;3.10;2.90;;;20.40;43.40;;;;;;4993031;28;20941;-56
2022/06/04 12:08:11;;;;;;;3.20;3.10;;;20.40;43.40;;;;;;4981974;28;20410;-55
2022/06/04 12:10:45;;;;;;;3.00;2.90;;;20.40;43.40;;;;;;4981542;28;20450;-56
2022/06/04 12:13:26;;;;;;;2.83;2.73;;;20.40;43.40;;;;;;4977077;28;20512;-55
2022/06/04 12:16:04;;;;;;;2.90;2.80;;;20.40;43.50;;;;;;4979088;28;20455;-55
2022/06/04 12:18:40;;;;;;;3.20;3.10;;;20.40;43.50;;;;;;4984844;28;20455;-56
2022/06/04 12:24:43;;;;;;;3.50;3.30;;;20.40;43.40;;;;;;4983630;28;20449;-55
2022/06/04 12:27:24;;;;;;;3.00;2.80;;;20.40;43.50;;;;;;4982820;28;20541;-55
2022/06/04 12:29:54;;;;;;;3.10;3.00;;;20.40;44.20;;;;;;4984084;28;20481;-57
2022/06/04 12:32:34;;;;;;;2.80;2.70;;;20.40;43.50;;;;;;4982016;28;20434;-55
2022/06/04 12:35:09;;;;;;;2.90;2.80;;;20.40;43.50;;;;;;4983189;28;20782;-56
2022/06/04 12:37:44;;;;;;;3.10;2.90;;;20.40;43.50;;;;;;4983420;28;20450;-55
2022/06/04 12:40:34;;;;;;;3.23;3.07;;;20.40;43.60;;;;;;4981878;28;20458;-55
2022/06/04 12:43:00;;;;;;;3.27;3.13;;;20.40;43.50;;;;;;4975261;28;20425;-55
2022/06/04 12:45:47;;;;;;;3.00;2.90;;;20.50;43.60;;;;;;4981018;28;20466;-55
2022/06/04 12:48:28;;;;;;;3.17;2.97;;;20.40;43.50;;;;;;4981497;28;20701;-54
2022/06/04 12:51:04;;;;;;;3.00;2.90;;;20.40;43.50;;;;;;4983448;28;20941;-55
2022/06/04 12:53:33;;;;;;;3.10;3.00;;;20.50;43.60;;;;;;4978939;28;20788;-55
2022/06/04 12:56:04;;;;;;;3.60;3.40;;;20.50;43.60;;;;;;4979459;28;21009;-55
2022/06/04 12:58:41;;;;;;;3.30;3.10;;;20.40;43.50;;;;;;4981641;28;20773;-57
2022/06/04 13:01:13;;;;;;;3.03;2.93;;;20.50;43.70;;;;;;4985059;28;20827;-54
2022/06/04 13:03:41;;;;;;;3.10;3.00;;;20.40;43.60;;;;;;4985722;28;20499;-55
2022/06/04 13:06:12;;;;;;;3.50;3.30;;;20.40;43.60;;;;;;4982589;28;20546;-55
2022/06/04 13:08:47;;;;;;;3.17;2.97;;;20.50;43.70;;;;;;4984184;28;20466;-55
2022/06/04 13:11:30;;;;;;;3.13;3.03;;;20.50;44.50;;;;;;4982749;28;20454;-54
2022/06/04 13:14:56;;;;;;;3.10;2.90;;;20.40;43.60;;;;;;4984702;28;20454;-56
2022/06/04 13:17:33;;;;;;;2.93;2.83;;;20.40;43.60;;;;;;4958955;28;20553;-56
2022/06/04 13:20:30;;;;;;;3.37;3.17;;;20.40;43.70;;;;;;4981887;28;20451;-55
2022/06/04 13:23:01;;;;;;;3.57;3.27;;;20.40;43.60;;;;;;4981986;28;20483;-56
2022/06/04 13:25:36;;;;;;;3.00;2.90;;;20.40;43.70;;;;;;4982275;28;20467;-56
2022/06/04 13:28:02;;;;;;;3.40;3.20;;;20.40;43.70;;;;;;4982881;28;20447;-54
2022/06/04 13:30:32;;;;;;;3.50;3.30;;;20.40;43.70;;;;;;4983093;28;21242;-55
2022/06/04 13:33:12;;;;;;;3.60;3.40;;;20.40;43.70;;;;;;4996855;28;20237;-55
2022/06/04 13:35:44;;;;;;;3.73;3.53;;;20.40;43.70;;;;;;4982961;28;21011;-58